Time;durP1;ratioP1;P1;durP2;ratioP2;P2;SDS_P1;SDS_P2;PMS_P1;PMS_P2;Temp;Humidity;BMP_temperature;BMP_pressure;BME280_temperature;BME280_humidity;BME280_pressure;Samples;Min_cycle;Max_cycle;Signal;HPM_P1;HPM_P2
2022/03/30 00:02:12;;;;;;;43.83;20.87;;;8.90;92.40;;;;;;5032487;28;20480;-66
2022/03/30 00:04:38;;;;;;;41.17;19.20;;;8.90;92.50;;;;;;5031819;28;20190;-66
2022/03/30 00:07:05;;;;;;;41.50;19.63;;;8.80;92.60;;;;;;5032148;28;20171;-66
2022/03/30 00:09:32;;;;;;;41.20;19.47;;;8.70;92.90;;;;;;5032206;28;20187;-66
2022/03/30 00:11:58;;;;;;;36.53;18.20;;;8.60;93.20;;;;;;5014513;28;20188;-66
2022/03/30 00:14:25;;;;;;;32.43;16.87;;;8.50;94.20;;;;;;5031712;28;20207;-65
2022/03/30 00:16:51;;;;;;;39.97;17.70;;;8.50;95.40;;;;;;5032094;28;20183;-65
2022/03/30 00:19:18;;;;;;;40.03;18.87;;;8.50;95.80;;;;;;5031773;28;20266;-65
2022/03/30 00:21:44;;;;;;;34.53;17.07;;;8.50;96.10;;;;;;5031701;28;20187;-65
2022/03/30 00:24:10;;;;;;;40.43;19.37;;;8.40;95.90;;;;;;5031906;28;20175;-65
2022/03/30 00:26:36;;;;;;;34.27;18.03;;;8.40;96.10;;;;;;5025867;28;20240;-65
2022/03/30 00:29:03;;;;;;;35.60;18.63;;;8.30;96.20;;;;;;5011933;28;20266;-66
2022/03/30 00:31:29;;;;;;;40.53;19.33;;;8.30;96.60;;;;;;5012088;28;20183;-65
2022/03/30 00:33:54;;;;;;;34.67;19.00;;;8.30;96.90;;;;;;5012012;28;20337;-65
2022/03/30 00:36:20;;;;;;;34.37;19.33;;;8.20;97.00;;;;;;5009179;28;20241;-65
2022/03/30 00:38:46;;;;;;;38.47;18.97;;;8.20;97.40;;;;;;5031626;28;20211;-65
2022/03/30 00:41:12;;;;;;;38.73;21.40;;;8.10;98.00;;;;;;5031659;28;20349;-65
2022/03/30 00:43:37;;;;;;;37.20;20.73;;;8.00;98.30;;;;;;5013738;28;20183;-65
2022/03/30 00:46:03;;;;;;;39.47;19.90;;;8.10;98.90;;;;;;5031824;28;20252;-65
2022/03/30 00:48:29;;;;;;;44.80;20.00;;;8.00;99.00;;;;;;5031203;28;20280;-65
2022/03/30 00:50:55;;;;;;;45.60;21.07;;;8.00;99.10;;;;;;5031284;28;20194;-66
2022/03/30 00:53:20;;;;;;;38.07;20.37;;;7.90;99.60;;;;;;5014018;28;20185;-66
2022/03/30 00:55:46;;;;;;;40.27;18.83;;;7.80;99.90;;;;;;5031409;28;20258;-66
2022/03/30 00:58:13;;;;;;;40.73;19.60;;;7.80;99.90;;;;;;5031750;28;20189;-66
2022/03/30 01:00:40;;;;;;;39.80;19.93;;;7.80;99.90;;;;;;5031414;28;20201;-66
2022/03/30 01:03:06;;;;;;;38.10;19.67;;;7.70;99.90;;;;;;5031842;28;20183;-66
2022/03/30 01:05:31;;;;;;;37.50;19.93;;;7.70;99.90;;;;;;5031495;28;20190;-66
2022/03/30 01:08:00;;;;;;;39.87;19.70;;;7.70;99.90;;;;;;5031081;28;20507;-67
2022/03/30 01:10:25;;;;;;;33.03;18.77;;;7.70;99.90;;;;;;5031144;28;20183;-66
2022/03/30 01:12:52;;;;;;;39.17;19.47;;;7.60;99.90;;;;;;5031297;28;20186;-66
2022/03/30 01:15:18;;;;;;;36.80;17.93;;;7.60;99.90;;;;;;5031088;28;20948;-66
2022/03/30 01:17:44;;;;;;;34.37;18.80;;;7.60;99.90;;;;;;5031281;28;20604;-65
2022/03/30 01:20:12;;;;;;;40.07;20.00;;;7.50;99.90;;;;;;5031073;28;20187;-66
2022/03/30 01:22:39;;;;;;;32.43;18.37;;;7.50;99.90;;;;;;5031587;28;20192;-66
2022/03/30 01:25:05;;;;;;;38.70;19.37;;;7.50;99.90;;;;;;5031340;28;20190;-65
2022/03/30 01:27:31;;;;;;;37.63;17.83;;;7.40;99.90;;;;;;5017512;28;20246;-66
2022/03/30 01:32:42;;;;;;;37.43;18.77;;;7.40;99.90;;;;;;5011533;28;20171;-66
2022/03/30 01:35:10;;;;;;;51.00;19.93;;;7.40;99.90;;;;;;5016182;28;20256;-67
2022/03/30 01:37:36;;;;;;;38.47;19.53;;;7.50;99.90;;;;;;5031028;28;20525;-65
2022/03/30 01:40:05;;;;;;;45.87;19.33;;;7.60;99.90;;;;;;5030958;28;20248;-66
2022/03/30 01:42:31;;;;;;;43.43;20.47;;;7.60;99.90;;;;;;5016082;28;20289;-66
2022/03/30 01:44:58;;;;;;;43.77;19.27;;;7.60;99.90;;;;;;5034655;28;20202;-66
2022/03/30 01:47:24;;;;;;;35.87;18.53;;;7.60;99.90;;;;;;5034733;28;20658;-66
2022/03/30 01:49:51;;;;;;;46.40;20.13;;;7.60;99.90;;;;;;5034309;28;20671;-65
2022/03/30 01:52:16;;;;;;;40.47;19.67;;;7.60;99.90;;;;;;5017020;28;20467;-66
2022/03/30 01:54:43;;;;;;;44.47;20.17;;;7.70;99.90;;;;;;5034248;28;20203;-65
2022/03/30 01:57:12;;;;;;;41.37;19.97;;;7.70;99.90;;;;;;5034897;28;20245;-66
2022/03/30 01:59:39;;;;;;;39.83;19.60;;;7.70;99.90;;;;;;5034914;28;20194;-65
2022/03/30 02:02:05;;;;;;;42.07;20.07;;;7.70;99.90;;;;;;5016548;28;20221;-65
2022/03/30 02:04:31;;;;;;;42.83;19.97;;;7.70;99.90;;;;;;5034586;28;20247;-67
2022/03/30 02:06:57;;;;;;;41.23;19.67;;;7.70;99.90;;;;;;5033042;28;20501;-66
2022/03/30 02:09:23;;;;;;;38.77;19.63;;;7.60;99.90;;;;;;5017228;28;20225;-67
2022/03/30 02:11:50;;;;;;;44.33;20.50;;;7.50;99.90;;;;;;5033948;28;20225;-66
2022/03/30 02:14:16;;;;;;;35.63;18.43;;;7.40;99.90;;;;;;5034358;28;20257;-66
2022/03/30 02:16:42;;;;;;;42.97;20.53;;;7.30;99.90;;;;;;5034376;28;20708;-66
2022/03/30 02:19:08;;;;;;;37.90;19.80;;;7.20;99.90;;;;;;5034257;28;20202;-66
2022/03/30 02:21:34;;;;;;;36.40;19.67;;;7.10;99.90;;;;;;5033982;28;20179;-66
2022/03/30 02:24:00;;;;;;;39.03;20.30;;;7.00;99.90;;;;;;5034051;28;20655;-66
2022/03/30 02:26:27;;;;;;;41.67;19.80;;;6.90;99.90;;;;;;5033975;28;20197;-67
2022/03/30 02:28:54;;;;;;;42.77;20.70;;;6.90;99.90;;;;;;5033610;28;20191;-66
2022/03/30 02:31:22;;;;;;;45.20;20.30;;;6.90;99.90;;;;;;5033729;28;20227;-66
2022/03/30 02:33:49;;;;;;;46.57;20.50;;;6.90;99.90;;;;;;5033477;28;20204;-66
2022/03/30 02:36:15;;;;;;;47.43;21.60;;;6.90;99.90;;;;;;5019607;28;20194;-66
2022/03/30 02:38:42;;;;;;;45.53;20.33;;;6.90;99.90;;;;;;5013851;28;20582;-66
2022/03/30 02:41:09;;;;;;;48.20;21.40;;;6.90;99.90;;;;;;4996021;28;20276;-66
2022/03/30 02:43:35;;;;;;;49.33;23.63;;;6.90;99.90;;;;;;5014167;28;20185;-66
2022/03/30 02:46:01;;;;;;;49.27;21.17;;;6.90;99.90;;;;;;5013581;28;20200;-66
2022/03/30 02:48:32;;;;;;;50.23;22.53;;;6.80;99.90;;;;;;5013536;28;20189;-64
2022/03/30 02:51:06;;;;;;;48.73;23.40;;;6.80;99.90;;;;;;5013338;28;20530;-66
2022/03/30 02:53:33;;;;;;;61.23;25.50;;;6.60;99.90;;;;;;5013430;28;20283;-65
2022/03/30 02:56:00;;;;;;;50.83;23.30;;;6.40;99.90;;;;;;5013418;28;20231;-66
2022/03/30 02:58:26;;;;;;;57.77;25.20;;;6.20;99.90;;;;;;5014130;28;20214;-66
2022/03/30 03:00:54;;;;;;;62.20;25.50;;;6.10;99.90;;;;;;5013500;28;20175;-65
2022/03/30 03:03:20;;;;;;;52.23;24.97;;;6.00;99.90;;;;;;5013599;28;20186;-65
2022/03/30 03:05:46;;;;;;;48.13;24.33;;;5.90;99.90;;;;;;5013295;28;20183;-65
2022/03/30 03:08:12;;;;;;;54.73;24.33;;;5.80;99.90;;;;;;4995889;28;20187;-65
2022/03/30 03:10:44;;;;;;;54.17;24.43;;;5.80;99.90;;;;;;5013823;28;20266;-65
2022/03/30 03:13:11;;;;;;;52.53;24.20;;;5.70;99.90;;;;;;5013128;28;20265;-66
2022/03/30 03:15:37;;;;;;;52.37;22.23;;;5.60;99.90;;;;;;5013021;28;20243;-65
2022/03/30 03:18:05;;;;;;;47.67;23.77;;;5.60;99.90;;;;;;5012828;28;20633;-65
2022/03/30 03:20:32;;;;;;;49.40;24.20;;;5.70;99.90;;;;;;5013268;28;20181;-66
2022/03/30 03:22:58;;;;;;;48.97;22.57;;;5.80;99.90;;;;;;5012764;28;20211;-66
2022/03/30 03:25:27;;;;;;;56.23;23.60;;;5.80;99.90;;;;;;5013670;28;20273;-66
2022/03/30 03:27:53;;;;;;;45.80;20.67;;;5.80;99.90;;;;;;5029431;28;20666;-66
2022/03/30 03:30:20;;;;;;;51.70;22.63;;;5.80;99.90;;;;;;5015142;28;20701;-66
2022/03/30 03:32:46;;;;;;;51.00;23.07;;;5.80;99.90;;;;;;5032624;28;20598;-66
2022/03/30 03:35:13;;;;;;;62.80;24.07;;;5.80;99.90;;;;;;5027108;28;20238;-65
2022/03/30 03:37:40;;;;;;;68.00;23.73;;;5.70;99.90;;;;;;5012081;28;20192;-66
2022/03/30 03:40:08;;;;;;;47.40;22.20;;;5.70;99.90;;;;;;5012483;28;20262;-66
2022/03/30 03:42:35;;;;;;;61.27;24.07;;;5.70;99.90;;;;;;5012857;28;20184;-66
2022/03/30 03:45:01;;;;;;;56.83;23.10;;;5.70;99.90;;;;;;5012250;28;20195;-66
2022/03/30 03:47:27;;;;;;;60.97;23.27;;;5.80;99.90;;;;;;5012742;28;20187;-66
2022/03/30 03:49:53;;;;;;;59.63;24.00;;;5.70;99.90;;;;;;5011835;28;20240;-66
2022/03/30 03:52:20;;;;;;;65.30;25.07;;;5.60;99.90;;;;;;5012355;28;20592;-66
2022/03/30 03:54:46;;;;;;;54.63;23.90;;;5.60;99.90;;;;;;5012523;28;20203;-67
2022/03/30 03:57:11;;;;;;;50.67;24.03;;;5.70;99.90;;;;;;5012262;28;20243;-67
2022/03/30 03:59:37;;;;;;;51.67;24.27;;;5.60;99.90;;;;;;5012572;28;20175;-66
2022/03/30 04:02:04;;;;;;;65.87;24.37;;;5.70;99.90;;;;;;4994276;28;20195;-66
2022/03/30 04:04:31;;;;;;;55.00;23.97;;;5.60;99.90;;;;;;5011530;28;20189;-66
2022/03/30 04:06:56;;;;;;;52.47;25.20;;;5.60;99.90;;;;;;5011905;28;20172;-67
2022/03/30 04:09:22;;;;;;;52.30;26.90;;;5.60;99.90;;;;;;5012313;28;20190;-66
2022/03/30 04:11:48;;;;;;;56.40;25.43;;;5.60;99.90;;;;;;5012447;28;20245;-66
2022/03/30 04:14:17;;;;;;;47.27;23.27;;;5.60;99.90;;;;;;4994296;28;20214;-66
2022/03/30 04:16:43;;;;;;;57.27;23.37;;;5.60;99.90;;;;;;5011958;28;20298;-65
2022/03/30 04:19:09;;;;;;;54.30;25.47;;;5.70;99.90;;;;;;5011515;28;20283;-66
2022/03/30 04:21:35;;;;;;;64.43;23.60;;;5.80;99.90;;;;;;5012111;28;20258;-65
2022/03/30 04:24:01;;;;;;;48.73;22.77;;;6.00;99.90;;;;;;5011662;28;20183;-66
2022/03/30 04:26:26;;;;;;;62.43;26.17;;;6.20;99.90;;;;;;5016543;28;20194;-67
2022/03/30 04:28:52;;;;;;;46.20;21.07;;;6.30;99.90;;;;;;5031485;28;20172;-66
2022/03/30 04:31:18;;;;;;;44.23;20.83;;;6.50;99.90;;;;;;5013670;28;20175;-65
2022/03/30 04:33:43;;;;;;;44.90;22.33;;;6.50;99.90;;;;;;5031365;28;20359;-66
2022/03/30 04:36:09;;;;;;;52.33;22.83;;;6.50;99.90;;;;;;5017762;28;20542;-67
2022/03/30 04:38:35;;;;;;;41.53;21.63;;;6.60;99.90;;;;;;4993505;28;20205;-66
2022/03/30 04:41:01;;;;;;;40.00;21.13;;;6.70;99.90;;;;;;4993475;28;20187;-67
2022/03/30 04:43:30;;;;;;;38.23;20.17;;;6.80;99.90;;;;;;5011314;28;20187;-66
2022/03/30 04:45:56;;;;;;;51.63;22.30;;;6.90;99.90;;;;;;5010847;28;20200;-66
2022/03/30 04:48:22;;;;;;;50.30;20.87;;;7.10;99.90;;;;;;5010884;28;20524;-66
2022/03/30 04:50:49;;;;;;;43.63;22.07;;;7.20;99.90;;;;;;4993404;28;20184;-67
2022/03/30 04:53:15;;;;;;;44.63;21.53;;;7.20;99.90;;;;;;4992855;28;20382;-68
2022/03/30 04:55:41;;;;;;;48.53;22.07;;;7.30;99.90;;;;;;5011093;28;20327;-67
2022/03/30 04:58:07;;;;;;;43.83;21.73;;;7.30;99.90;;;;;;4993082;28;20305;-68
2022/03/30 05:00:33;;;;;;;65.83;25.87;;;7.40;99.90;;;;;;5010887;28;20307;-69
2022/03/30 05:02:58;;;;;;;53.30;24.53;;;7.50;99.90;;;;;;4993059;28;20626;-67
2022/03/30 05:05:24;;;;;;;58.93;25.37;;;7.50;99.90;;;;;;5011367;28;20480;-65
2022/03/30 05:07:51;;;;;;;62.97;27.50;;;7.40;99.90;;;;;;4993393;28;20265;-62
2022/03/30 05:10:16;;;;;;;70.97;28.90;;;7.40;99.90;;;;;;5010474;28;20209;-69
2022/03/30 05:12:43;;;;;;;67.37;33.43;;;7.30;99.90;;;;;;4993016;28;20233;-68
2022/03/30 05:15:10;;;;;;;76.83;31.87;;;7.40;99.90;;;;;;4993512;28;20221;-69
2022/03/30 05:17:41;;;;;;;78.30;33.27;;;7.40;99.90;;;;;;4997111;28;20186;-68
2022/03/30 05:20:07;;;;;;;81.27;36.10;;;7.60;99.90;;;;;;5016298;28;20257;-66
2022/03/30 05:22:34;;;;;;;64.87;32.60;;;7.60;99.90;;;;;;5026022;28;20198;-66
2022/03/30 05:25:03;;;;;;;74.23;34.53;;;7.70;99.90;;;;;;5024014;28;20622;-68
2022/03/30 05:27:29;;;;;;;72.40;35.67;;;7.60;99.90;;;;;;5022711;28;20187;-65
2022/03/30 05:29:54;;;;;;;87.40;41.43;;;7.70;99.90;;;;;;5004452;28;20237;-67
2022/03/30 05:32:20;;;;;;;79.93;38.30;;;7.80;99.90;;;;;;5023325;28;20291;-68
2022/03/30 05:34:46;;;;;;;78.10;38.97;;;7.80;99.90;;;;;;5021561;28;20210;-71
2022/03/30 05:37:12;;;;;;;85.53;36.67;;;7.90;99.90;;;;;;5011114;28;20218;-67
2022/03/30 05:39:41;;;;;;;74.50;36.40;;;8.10;99.90;;;;;;5004907;28;20643;-64
2022/03/30 05:42:12;;;;;;;66.87;35.47;;;8.30;99.90;;;;;;4996009;28;20188;-62
2022/03/30 05:44:38;;;;;;;91.80;35.93;;;8.60;99.90;;;;;;5013850;28;20203;-65
2022/03/30 05:47:06;;;;;;;64.67;31.77;;;8.70;99.90;;;;;;4977873;28;20665;-68
2022/03/30 05:49:34;;;;;;;63.17;29.20;;;8.80;99.90;;;;;;5012553;28;20236;-68
2022/03/30 05:51:59;;;;;;;60.10;26.57;;;9.00;99.90;;;;;;5011564;28;20237;-68
2022/03/30 05:54:25;;;;;;;57.53;22.70;;;9.10;99.90;;;;;;5011878;28;20626;-70
2022/03/30 05:57:00;;;;;;;37.43;20.40;;;9.20;99.90;;;;;;5000814;28;20180;-69
2022/03/30 05:59:31;;;;;;;51.60;21.30;;;9.20;99.90;;;;;;5015165;28;20190;-69
2022/03/30 06:01:58;;;;;;;44.80;20.80;;;9.20;99.90;;;;;;5029913;28;20278;-67
2022/03/30 06:04:24;;;;;;;46.37;23.47;;;9.30;99.90;;;;;;5031722;28;20256;-70
2022/03/30 06:06:53;;;;;;;42.40;20.97;;;9.50;99.90;;;;;;5013859;28;20603;-70
2022/03/30 06:09:19;;;;;;;42.83;22.33;;;9.60;99.90;;;;;;5030890;28;20195;-69
2022/03/30 06:11:46;;;;;;;55.23;23.83;;;9.70;99.90;;;;;;5033400;28;20719;-70
2022/03/30 06:14:14;;;;;;;54.83;24.30;;;9.80;99.90;;;;;;5033577;28;20670;-70
2022/03/30 06:16:41;;;;;;;53.77;24.33;;;9.90;99.90;;;;;;5034169;28;20196;-70
2022/03/30 06:19:09;;;;;;;55.80;24.43;;;9.80;99.90;;;;;;5031944;28;20552;-68
2022/03/30 06:21:35;;;;;;;52.03;25.93;;;9.90;99.90;;;;;;5030930;28;20180;-69
2022/03/30 06:24:01;;;;;;;58.70;27.27;;;9.80;99.90;;;;;;5030847;28;20793;-69
2022/03/30 06:26:27;;;;;;;58.43;26.90;;;9.70;99.90;;;;;;5008456;28;20188;-69
2022/03/30 06:28:54;;;;;;;54.77;27.83;;;9.80;99.90;;;;;;5011371;28;20195;-68
2022/03/30 06:31:20;;;;;;;61.43;29.30;;;10.10;99.90;;;;;;5010716;28;20233;-70
2022/03/30 06:33:47;;;;;;;58.13;28.57;;;10.40;99.90;;;;;;5012624;28;20176;-68
2022/03/30 06:36:13;;;;;;;75.77;31.90;;;10.80;99.90;;;;;;5026956;28;20264;-69
2022/03/30 06:38:41;;;;;;;81.70;36.30;;;11.00;99.80;;;;;;5014774;28;20256;-70
2022/03/30 06:41:08;;;;;;;84.53;38.93;;;10.80;99.70;;;;;;5031891;28;20217;-70
2022/03/30 06:43:36;;;;;;;88.07;39.80;;;10.80;99.70;;;;;;5024692;28;20245;-70
2022/03/30 06:46:03;;;;;;;79.87;36.80;;;10.90;99.50;;;;;;5026584;28;20264;-69
2022/03/30 06:48:30;;;;;;;87.20;37.60;;;10.80;99.50;;;;;;5030657;28;20514;-69
2022/03/30 06:50:57;;;;;;;83.00;39.67;;;10.80;99.60;;;;;;5043829;28;20285;-71
2022/03/30 06:53:23;;;;;;;83.17;38.30;;;10.90;99.60;;;;;;5052927;28;20181;-69
2022/03/30 06:55:50;;;;;;;87.73;38.07;;;10.90;99.60;;;;;;5035480;28;20229;-70
2022/03/30 06:58:16;;;;;;;79.60;38.70;;;11.00;99.70;;;;;;5025342;28;20195;-70
2022/03/30 07:00:42;;;;;;;87.27;39.13;;;11.30;99.60;;;;;;5032264;28;20187;-70
2022/03/30 07:03:07;;;;;;;86.13;35.10;;;11.60;99.00;;;;;;5006488;28;20185;-69
2022/03/30 07:05:33;;;;;;;73.37;34.53;;;11.90;98.80;;;;;;5027244;28;20204;-69
2022/03/30 07:10:43;;;;;;;70.83;30.17;;;12.10;98.20;;;;;;5028584;28;20476;-70
2022/03/30 07:13:09;;;;;;;64.43;29.37;;;12.20;97.80;;;;;;5004460;28;20196;-71
2022/03/30 07:15:34;;;;;;;63.77;28.47;;;12.10;97.70;;;;;;5026775;28;20235;-69
2022/03/30 07:18:01;;;;;;;64.13;28.10;;;12.10;97.80;;;;;;5010613;28;20189;-68
2022/03/30 07:20:30;;;;;;;65.67;27.70;;;12.20;97.80;;;;;;5025757;28;20275;-70
2022/03/30 07:22:58;;;;;;;52.77;29.03;;;12.30;97.50;;;;;;5027779;28;20650;-68
2022/03/30 07:25:25;;;;;;;54.07;25.97;;;12.40;97.40;;;;;;5014258;28;20205;-68
2022/03/30 07:27:58;;;;;;;54.30;25.53;;;12.70;97.20;;;;;;5015709;28;20194;-69
2022/03/30 07:30:24;;;;;;;50.77;24.00;;;13.00;96.50;;;;;;5026267;28;20189;-69
2022/03/30 07:32:51;;;;;;;59.37;26.57;;;13.10;96.20;;;;;;5025382;28;20201;-68
2022/03/30 07:35:23;;;;;;;54.20;25.70;;;13.30;95.90;;;;;;5023402;28;20329;-70
2022/03/30 07:37:49;;;;;;;41.83;22.43;;;13.50;95.50;;;;;;5031605;28;20189;-69
2022/03/30 07:40:18;;;;;;;44.73;22.27;;;13.50;94.80;;;;;;5030631;28;20194;-69
2022/03/30 07:42:46;;;;;;;46.90;22.30;;;13.60;94.70;;;;;;5028011;28;20198;-69
2022/03/30 07:45:12;;;;;;;47.57;24.27;;;13.50;94.40;;;;;;5019936;28;20275;-68
2022/03/30 07:47:38;;;;;;;49.73;23.27;;;13.50;94.40;;;;;;5020820;28;20190;-71
2022/03/30 07:50:06;;;;;;;49.30;24.87;;;13.80;94.30;;;;;;5022107;28;20557;-68
2022/03/30 07:52:32;;;;;;;49.43;24.00;;;14.10;93.70;;;;;;5020239;28;20183;-69
2022/03/30 07:54:58;;;;;;;46.13;24.20;;;14.30;93.00;;;;;;5022701;28;20246;-68
2022/03/30 07:57:27;;;;;;;51.53;26.37;;;14.30;92.50;;;;;;5023773;28;20202;-69
2022/03/30 07:59:54;;;;;;;56.67;27.47;;;14.30;92.20;;;;;;5013123;28;20246;-70
2022/03/30 08:02:19;;;;;;;61.47;27.87;;;14.20;91.90;;;;;;5024985;28;20241;-68
2022/03/30 08:04:45;;;;;;;53.93;27.57;;;14.10;92.10;;;;;;5019638;28;20207;-68
2022/03/30 08:07:11;;;;;;;48.20;25.20;;;14.00;92.10;;;;;;5012550;28;20215;-70
2022/03/30 08:09:37;;;;;;;52.57;25.03;;;14.00;92.10;;;;;;5018084;28;20631;-71
2022/03/30 08:12:03;;;;;;;56.33;27.43;;;14.20;92.10;;;;;;5031018;28;20603;-70
2022/03/30 08:14:29;;;;;;;52.03;28.00;;;14.20;91.90;;;;;;5012413;28;20222;-69
2022/03/30 08:16:55;;;;;;;54.83;28.23;;;14.30;91.90;;;;;;5028027;28;20186;-68
2022/03/30 08:19:21;;;;;;;70.50;29.10;;;14.60;91.50;;;;;;5029091;28;20271;-71
2022/03/30 08:24:30;;;;;;;56.50;30.33;;;14.80;90.50;;;;;;5029653;28;20175;-69
2022/03/30 08:26:56;;;;;;;69.77;32.17;;;14.80;90.50;;;;;;5018666;28;20191;-69
2022/03/30 08:29:22;;;;;;;57.87;31.23;;;14.90;90.40;;;;;;5008420;28;20205;-69
2022/03/30 08:31:48;;;;;;;56.40;28.93;;;15.10;89.90;;;;;;5008795;28;20191;-69
2022/03/30 08:34:19;;;;;;;70.93;32.00;;;15.30;89.60;;;;;;5008481;28;20249;-70
2022/03/30 08:36:45;;;;;;;74.00;32.00;;;15.40;89.10;;;;;;5027068;28;20649;-69
2022/03/30 08:39:11;;;;;;;66.83;31.67;;;15.30;89.00;;;;;;5028748;28;20200;-68
2022/03/30 08:41:45;;;;;;;74.97;32.47;;;15.30;88.80;;;;;;5028706;28;20173;-69
2022/03/30 08:44:14;;;;;;;79.30;33.53;;;15.50;89.00;;;;;;5010403;28;20177;-70
2022/03/30 08:46:49;;;;;;;83.67;41.80;;;15.60;88.10;;;;;;5030870;28;20198;-69
2022/03/30 08:49:15;;;;;;;67.33;32.03;;;15.40;87.90;;;;;;5030314;28;20221;-68
2022/03/30 08:51:45;;;;;;;76.03;35.13;;;15.50;88.50;;;;;;5034061;28;20193;-70
2022/03/30 08:54:12;;;;;;;73.30;34.73;;;15.70;87.50;;;;;;5034627;28;20272;-69
2022/03/30 08:56:39;;;;;;;77.73;34.17;;;15.80;86.60;;;;;;5034717;28;20221;-69
2022/03/30 08:59:09;;;;;;;72.93;35.23;;;15.80;86.60;;;;;;5034247;28;20186;-70
2022/03/30 09:01:39;;;;;;;70.97;34.33;;;15.80;86.40;;;;;;5034075;28;21025;-69
2022/03/30 09:04:09;;;;;;;70.80;34.27;;;15.90;85.90;;;;;;5033987;28;20364;-69
2022/03/30 09:06:34;;;;;;;82.13;35.67;;;16.10;85.10;;;;;;5034743;28;20186;-69
2022/03/30 09:09:00;;;;;;;72.57;34.57;;;16.30;85.10;;;;;;5033692;28;20281;-68
2022/03/30 09:11:40;;;;;;;68.97;31.33;;;16.40;82.90;;;;;;5016452;28;20278;-67
2022/03/30 09:14:07;;;;;;;71.83;34.23;;;16.50;82.20;;;;;;5033966;28;20201;-69
2022/03/30 09:16:54;;;;;;;66.97;35.30;;;16.50;82.00;;;;;;5034012;28;20525;-69
2022/03/30 09:19:21;;;;;;;85.83;34.87;;;16.40;81.40;;;;;;5033873;28;20257;-68
2022/03/30 09:21:52;;;;;;;68.40;35.90;;;16.50;82.10;;;;;;5034499;28;20199;-68
2022/03/30 09:24:26;;;;;;;70.43;35.27;;;16.60;82.00;;;;;;5033719;28;20632;-69
2022/03/30 09:26:53;;;;;;;64.17;32.93;;;16.60;81.00;;;;;;5024987;28;20262;-69
2022/03/30 09:29:21;;;;;;;71.97;33.73;;;16.80;80.90;;;;;;4996000;28;20187;-69
2022/03/30 09:31:49;;;;;;;71.07;34.97;;;16.90;80.20;;;;;;5013453;28;20632;-69
2022/03/30 09:34:15;;;;;;;75.53;33.73;;;17.00;79.70;;;;;;5013849;28;20540;-70
2022/03/30 09:36:42;;;;;;;68.87;33.77;;;17.00;79.20;;;;;;5031185;28;20596;-69
2022/03/30 09:39:31;;;;;;;70.87;35.10;;;17.00;78.70;;;;;;5015140;28;20179;-69
2022/03/30 09:41:59;;;;;;;72.47;36.27;;;17.20;78.10;;;;;;5033738;28;20171;-68
2022/03/30 09:44:28;;;;;;;66.23;32.70;;;17.20;77.40;;;;;;5033788;28;20241;-69
2022/03/30 09:47:05;;;;;;;58.10;31.30;;;17.20;77.10;;;;;;5029866;28;20194;-69
2022/03/30 09:49:36;;;;;;;62.00;30.93;;;17.60;76.20;;;;;;5032020;28;20233;-67
2022/03/30 09:52:09;;;;;;;65.80;32.73;;;18.00;74.50;;;;;;5031711;28;20261;-69
2022/03/30 09:54:37;;;;;;;32.97;19.37;;;18.20;73.10;;;;;;5033127;28;20217;-69
2022/03/30 09:57:12;;;;;;;34.00;20.20;;;18.10;66.70;;;;;;5032870;28;20187;-70
2022/03/30 09:59:59;;;;;;;48.73;23.80;;;18.00;65.50;;;;;;5033043;28;20333;-69
2022/03/30 10:02:27;;;;;;;49.27;26.87;;;18.10;67.10;;;;;;5031590;28;20514;-68
2022/03/30 10:04:53;;;;;;;48.10;27.10;;;18.10;70.00;;;;;;5033129;28;20183;-69
2022/03/30 10:07:21;;;;;;;70.03;34.17;;;18.20;69.40;;;;;;5032874;28;20182;-69
2022/03/30 10:09:48;;;;;;;82.93;37.00;;;18.20;69.50;;;;;;5033112;28;20233;-67
2022/03/30 10:12:17;;;;;;;83.70;36.47;;;18.30;69.60;;;;;;5032917;28;20270;-68
2022/03/30 10:14:47;;;;;;;64.40;31.97;;;18.50;69.00;;;;;;4999458;28;20210;-70
2022/03/30 10:17:14;;;;;;;63.77;32.40;;;18.60;67.90;;;;;;5032292;28;20191;-69
2022/03/30 10:19:44;;;;;;;68.87;33.83;;;18.80;67.20;;;;;;5015334;28;20534;-68
2022/03/30 10:22:16;;;;;;;58.30;28.00;;;18.90;67.00;;;;;;5033020;28;20198;-68
2022/03/30 10:25:02;;;;;;;60.92;29.77;;;19.20;63.60;;;;;;5033103;28;20202;-68
2022/03/30 10:27:53;;;;;;;55.03;26.45;;;19.20;62.20;;;;;;5019862;28;20225;-68
2022/03/30 10:30:30;;;;;;;57.15;26.98;;;19.20;60.40;;;;;;5013025;28;21025;-69
2022/03/30 10:33:02;;;;;;;64.88;32.33;;;19.40;60.10;;;;;;5011568;28;20254;-69
2022/03/30 10:35:43;;;;;;;57.72;30.58;;;19.50;61.30;;;;;;5021277;28;20253;-68
2022/03/30 10:38:10;;;;;;;64.85;33.40;;;19.60;60.80;;;;;;5032844;28;20245;-67
2022/03/30 10:40:37;;;;;;;76.60;38.37;;;19.40;61.20;;;;;;5034540;28;20197;-67
2022/03/30 10:43:06;;;;;;;65.33;34.17;;;19.20;61.40;;;;;;5033697;28;20167;-69
2022/03/30 10:45:45;;;;;;;77.30;37.83;;;18.90;60.80;;;;;;5033090;28;20586;-69
2022/03/30 10:48:29;;;;;;;73.63;38.77;;;19.00;61.00;;;;;;5032759;28;20167;-67
2022/03/30 10:50:58;;;;;;;74.77;37.63;;;19.40;61.60;;;;;;5032100;28;20190;-68
2022/03/30 10:53:33;;;;;;;80.60;40.45;;;19.70;59.40;;;;;;5031647;28;20404;-69
2022/03/30 10:56:12;;;;;;;72.82;36.65;;;19.80;58.80;;;;;;5032310;28;20360;-71
2022/03/30 10:59:01;;;;;;;55.30;30.23;;;20.10;57.00;;;;;;5014491;28;20322;-69
2022/03/30 11:01:29;;;;;;;57.05;30.58;;;20.20;55.30;;;;;;5031972;28;20194;-69
2022/03/30 11:04:13;;;;;;;55.92;28.15;;;20.20;56.80;;;;;;5032637;28;20526;-68
2022/03/30 11:06:46;;;;;;;45.45;19.35;;;20.20;54.60;;;;;;5032494;28;20163;-68
2022/03/30 11:09:28;;;;;;;32.58;17.95;;;20.70;50.40;;;;;;5031849;28;20269;-69
2022/03/30 11:12:03;;;;;;;32.28;17.80;;;21.00;49.90;;;;;;5032209;28;20538;-69
2022/03/30 11:14:36;;;;;;;37.70;17.70;;;21.20;48.80;;;;;;5032223;28;20217;-69
2022/03/30 11:17:03;;;;;;;31.63;16.17;;;21.10;47.80;;;;;;5031420;28;20191;-68
2022/03/30 11:19:56;;;;;;;33.85;17.98;;;21.00;47.50;;;;;;5032469;28;20194;-69
2022/03/30 11:22:29;;;;;;;30.70;17.38;;;20.50;47.10;;;;;;5030213;28;20278;-70
2022/03/30 11:25:20;;;;;;;33.67;17.42;;;20.00;48.20;;;;;;5031939;28;20167;-68
2022/03/30 11:27:59;;;;;;;30.55;18.05;;;19.80;49.10;;;;;;5016082;28;20204;-70
2022/03/30 11:30:30;;;;;;;28.13;16.05;;;20.10;48.90;;;;;;5012228;28;20179;-70
2022/03/30 11:32:58;;;;;;;28.60;17.10;;;20.50;48.70;;;;;;5011991;28;20167;-68
2022/03/30 11:35:28;;;;;;;28.48;16.00;;;21.00;47.90;;;;;;5018763;28;20214;-70
2022/03/30 11:38:12;;;;;;;37.42;17.35;;;21.50;46.90;;;;;;5031834;28;20260;-69
2022/03/30 11:40:41;;;;;;;29.05;17.77;;;22.00;46.00;;;;;;5031876;28;20179;-70
2022/03/30 11:43:09;;;;;;;33.42;16.60;;;22.00;45.00;;;;;;5031771;28;20179;-70
2022/03/30 11:45:35;;;;;;;28.98;16.30;;;21.90;44.80;;;;;;5014234;28;20187;-69
2022/03/30 11:48:07;;;;;;;27.98;15.43;;;21.90;43.90;;;;;;5031370;28;20618;-69
2022/03/30 11:50:44;;;;;;;27.20;16.50;;;22.70;43.00;;;;;;5031595;28;20239;-69
2022/03/30 11:53:24;;;;;;;28.55;16.17;;;24.30;41.30;;;;;;5031101;28;20285;-67
2022/03/30 11:56:01;;;;;;;28.75;16.58;;;25.60;38.90;;;;;;5031329;28;20310;-69
2022/03/30 11:58:31;;;;;;;28.20;16.77;;;26.00;37.70;;;;;;5031424;28;20198;-69
2022/03/30 12:01:01;;;;;;;27.17;13.10;;;25.80;38.40;;;;;;5031264;28;20179;-68
2022/03/30 12:03:29;;;;;;;25.48;13.50;;;25.00;33.40;;;;;;5030719;28;20167;-68
2022/03/30 12:05:57;;;;;;;27.15;15.00;;;25.10;34.40;;;;;;5030801;28;20183;-68
2022/03/30 12:08:24;;;;;;;23.98;14.45;;;25.50;34.00;;;;;;5030860;28;20269;-68
2022/03/30 12:10:53;;;;;;;27.75;13.65;;;25.70;34.50;;;;;;5031073;28;20202;-68
2022/03/30 12:13:24;;;;;;;27.05;13.70;;;25.40;34.60;;;;;;5030714;28;20294;-69
2022/03/30 12:16:11;;;;;;;22.90;12.77;;;24.80;32.40;;;;;;5030689;28;20257;-69
2022/03/30 12:18:51;;;;;;;20.73;13.45;;;23.80;33.40;;;;;;5030339;28;20171;-68
2022/03/30 12:21:19;;;;;;;24.02;12.63;;;23.20;33.90;;;;;;5030605;28;20159;-69
2022/03/30 12:24:02;;;;;;;23.77;13.70;;;23.50;33.80;;;;;;5030810;28;20183;-69
2022/03/30 12:26:29;;;;;;;21.73;12.77;;;23.20;33.20;;;;;;5024759;28;20224;-69
2022/03/30 12:29:15;;;;;;;37.03;13.32;;;24.00;34.40;;;;;;5011034;28;20671;-67
2022/03/30 12:31:59;;;;;;;23.83;13.00;;;24.00;32.60;;;;;;5011277;28;20516;-68
2022/03/30 12:34:26;;;;;;;24.02;13.45;;;24.90;31.70;;;;;;5008641;28;20223;-67
2022/03/30 12:37:05;;;;;;;21.85;12.38;;;25.00;31.20;;;;;;5012408;28;20194;-68
2022/03/30 12:39:40;;;;;;;22.08;12.95;;;24.00;32.10;;;;;;5013244;28;20170;-69
2022/03/30 12:42:11;;;;;;;22.95;12.73;;;23.80;32.60;;;;;;5030419;28;20281;-69
2022/03/30 12:44:40;;;;;;;25.42;12.80;;;24.30;32.20;;;;;;5013109;28;20183;-67
2022/03/30 12:47:15;;;;;;;24.40;13.98;;;24.30;32.40;;;;;;5012558;28;20198;-69
2022/03/30 12:49:42;;;;;;;29.70;13.23;;;24.30;32.00;;;;;;5030337;28;20675;-67